Aeroporto :
LOGIN :

Iscrizione | Disclaimer

   EN    FR    IT 

 










Sommario :    VFR   VFR Marginale   IFR   IFR Intensivo   IFR Molto Intensivo
Visibilità : 
Base nubi : 
>= 8 km
>= 3000ft
5 / 8 km
1000 / 3000 ft
1500m / 5 km
500 / 1000 ft
800 / 1500m
200 / 500 ft
< 800m
< 200 ft
Simboli :   Temporali  Nebbia  Neve Forte  Precipitazioni Forti  Vento > 20 kt
SIGMETs :   Varie  Temporali  Ghiacco  Turbolenza  Onda orograficha  Ceneri Vulcaniche






- Altitudine del aeroporto : 308 ft
- Codice IATA : ATH


LGAV - Eleftherios Venizelos Int.

ULTIMO METAR :
  • 020520Z VRB01KT 9999 FEW020 18/12 Q1010 NOSIG

METARs OBSOLETI :
  • 020450Z 00000KT 9999 FEW020 16/12 Q1010 NOSIG
  • 020420Z 29002KT 9999 FEW030 14/11 Q1010 NOSIG
  • 020350Z 28002KT 9999 FEW030 13/10 Q1010 NOSIG
  • 020320Z 28003KT 9999 FEW030 13/10 Q1010 NOSIG
  • 020250Z 29004KT 9999 FEW030 13/10 Q1010 NOSIG

TAF TAF LGAV
Valido dal 02 a 06 ore il 03 a 06 ore UTC


020500Z 0206/0306 VRB03KT 9999 FEW030 SCT070
TEMPO 0215/0303 19006KT
PROB40
TEMPO 0209/0217 5000 RA FEW015 BKN025
PROB40
TEMPO 0209/0215 3000 TSRA SCT010 FEW018CB BKN020



MetMap, La meteo Aeronautica in un colpo d'occhio ! - Copyright ORBIFLY Dicembre 2007 - Disclaimer

ORBIFLY MET'MAP TEAM :

Programmazione e sviluppo : Alexandra Zaïnal
Concezione : Baudouin d'Aumeries
Aiuto per la programmazione : Marc-Olivier Méhu
Supporto tecnico e logistico : Manuel Goepfert
Aiuto per la traduzione : Arnaldo La Scala

Contatto : metmap@orbifly.com




FONTI E CREDITI :

   NOAA